Airfield :
LOGIN :

Register | Disclaimer

   EN    FR    IT 

 










Legend :    VFR   Marginal VFR   IFR   Intensive IFR   Very Intensive IFR
Visi :
Ceiling :
>= 8 km
>= 3000ft
5 to 8 km
1000 to 3000 ft
1500m to 5 km
500 to 1000 ft
800 to 1500m
200 to 500 ft
< 800m
< 200 ft
Symbols :   Thunderstorms  Fog  Heavy snow  Heavy precipitations  Wind > 20 kt
SIGMETs :     Misc.  Thunderstorms  Icing  Turbulence  Mountain Waves  Volcanic Ashes






- Airport Elevation : 465 ft
- IATA code : LEJ


EDDP - Leipzig Halle

CURRENT METAR :
  • 291150Z AUTO VRB02KT 9999 FEW033 14/07 Q1003 NOSIG

EXPIRED METARs :
  • 291120Z AUTO 21003KT 170V280 9999 FEW030 14/06 Q1003 NOSIG
  • 291050Z AUTO 20003KT 140V240 9999 SCT031 13/06 Q1003 NOSIG
  • 291020Z AUTO VRB03KT 9999 FEW028 13/06 Q1003 NOSIG
  • 290950Z AUTO 23004KT 180V300 CAVOK 13/07 Q1003 NOSIG
  • 290920Z AUTO 18005KT 130V210 CAVOK 12/07 Q1003 NOSIG

TAF TAF EDDP
Valid from the 29 at 12:00 until the 30 at 12:00 UTC


291100Z 2912/3012 VRB03KT 9999 SCT040
PROB30
TEMPO 2912/2916 SHRA BKN030CB
PROB30
TEMPO 3000/3007 2000 BCFG



MET'MAP, your aeronautical weather chart ! - Copyright ORBIFLY December 2007 - Disclaimer

ORBIFLY MET'MAP TEAM :

Programming & Development : Alexandra Zaïnal
Original concept : Baudouin d'Aumeries
Technical & hardware support : Manuel Goepfert
Assistance : Marc-Olivier Méhu




SOURCES & CREDITS :

   NOAA